createdAt,value
2022-11-09T00:01:18.403Z,8.70
2022-11-09T00:04:04.225Z,8.69
2022-11-09T00:06:47.149Z,8.69
2022-11-09T00:09:30.144Z,8.66
2022-11-09T00:12:13.049Z,8.61
2022-11-09T00:14:56.532Z,8.57
2022-11-09T00:17:39.472Z,8.52
2022-11-09T00:20:23.851Z,8.50
2022-11-09T00:23:07.173Z,8.47
2022-11-09T00:25:50.225Z,8.46
2022-11-09T00:28:33.434Z,8.43
2022-11-09T00:31:18.272Z,8.39
2022-11-09T00:34:01.719Z,8.33
2022-11-09T00:36:46.054Z,8.29
2022-11-09T00:39:29.013Z,8.27
2022-11-09T00:42:14.280Z,8.27
2022-11-09T00:44:57.202Z,8.25
2022-11-09T00:47:40.194Z,8.23
2022-11-09T00:50:23.148Z,8.23
2022-11-09T00:53:07.863Z,8.23
2022-11-09T00:55:57.924Z,8.23
2022-11-09T00:58:42.069Z,8.21
2022-11-09T01:01:26.344Z,8.20
2022-11-09T01:04:09.424Z,8.19
2022-11-09T01:06:52.412Z,8.16
2022-11-09T01:09:36.804Z,8.14
2022-11-09T01:12:19.727Z,8.13
2022-11-09T01:15:02.907Z,8.13
2022-11-09T01:17:46.010Z,8.12
2022-11-09T01:20:29.016Z,8.12
2022-11-09T01:23:12.927Z,8.12
2022-11-09T01:26:00.878Z,8.11
2022-11-09T01:28:44.417Z,8.09
2022-11-09T01:31:27.426Z,8.09
2022-11-09T01:34:10.463Z,8.07
2022-11-09T01:36:53.612Z,8.10
2022-11-09T01:39:38.249Z,8.12
2022-11-09T01:42:25.914Z,8.14
2022-11-09T01:45:28.456Z,8.14
2022-11-09T01:48:15.627Z,8.13
2022-11-09T01:51:02.654Z,8.11
2022-11-09T01:53:52.083Z,8.06
2022-11-09T01:56:35.380Z,8.02
2022-11-09T01:59:26.867Z,8.01
2022-11-09T02:02:10.758Z,8.02
2022-11-09T02:05:01.762Z,8.02
2022-11-09T02:07:45.521Z,8.02
2022-11-09T02:10:34.904Z,8.01
2022-11-09T02:13:20.754Z,8.01
2022-11-09T02:16:06.009Z,8.00
2022-11-09T02:18:52.965Z,7.98
2022-11-09T02:21:37.389Z,7.95
2022-11-09T02:24:20.659Z,7.94
2022-11-09T02:27:06.634Z,7.94
2022-11-09T02:29:51.144Z,7.90
2022-11-09T02:32:34.477Z,7.88
2022-11-09T02:35:18.464Z,7.83
2022-11-09T02:38:04.284Z,7.78
2022-11-09T02:40:50.987Z,7.74
2022-11-09T02:43:34.269Z,7.72
2022-11-09T02:46:24.296Z,7.70
2022-11-09T02:49:07.411Z,7.69
2022-11-09T02:51:52.240Z,7.68
2022-11-09T02:54:36.624Z,7.65
2022-11-09T02:57:20.464Z,7.63
2022-11-09T03:00:06.221Z,7.63
2022-11-09T03:02:50.834Z,7.65
2022-11-09T03:05:34.224Z,7.71
2022-11-09T03:08:17.801Z,7.79
2022-11-09T03:11:06.198Z,7.83
2022-11-09T03:13:49.651Z,7.85
2022-11-09T03:16:33.442Z,7.82
2022-11-09T03:19:16.844Z,7.79
2022-11-09T03:22:01.462Z,7.78
2022-11-09T03:24:44.469Z,7.78
2022-11-09T03:27:29.641Z,7.78
2022-11-09T03:30:13.165Z,7.81
2022-11-09T03:33:00.303Z,7.83
2022-11-09T03:35:44.692Z,7.83
2022-11-09T03:38:30.498Z,7.87
2022-11-09T03:41:13.574Z,7.88
2022-11-09T03:43:58.238Z,7.88
2022-11-09T03:46:41.174Z,7.88
2022-11-09T03:49:25.069Z,7.89
2022-11-09T03:52:07.941Z,7.88
2022-11-09T03:54:50.980Z,7.87
2022-11-09T03:57:33.937Z,7.85
2022-11-09T04:00:20.931Z,7.83
2022-11-09T04:03:05.613Z,7.84
2022-11-09T04:05:48.580Z,7.81
2022-11-09T04:08:31.888Z,7.81
2022-11-09T04:11:14.821Z,7.81
2022-11-09T04:13:57.870Z,7.80
2022-11-09T04:16:42.235Z,7.80
2022-11-09T04:19:25.225Z,7.80
2022-11-09T04:22:08.223Z,7.79
2022-11-09T04:24:51.222Z,7.78
2022-11-09T04:27:34.176Z,7.76
2022-11-09T04:30:17.499Z,7.74
2022-11-09T04:33:02.652Z,7.72
2022-11-09T04:35:45.610Z,7.72
2022-11-09T04:38:28.640Z,7.74
2022-11-09T04:41:11.619Z,7.74
2022-11-09T04:43:54.542Z,7.76
2022-11-09T04:46:37.517Z,7.75
2022-11-09T04:49:22.070Z,7.75
2022-11-09T04:52:05.203Z,7.74
2022-11-09T04:54:48.333Z,7.73
2022-11-09T04:57:31.280Z,7.72
2022-11-09T05:00:14.576Z,7.72
2022-11-09T05:03:01.136Z,7.73
2022-11-09T05:05:48.295Z,7.74
2022-11-09T05:08:31.734Z,7.77
2022-11-09T05:11:14.773Z,7.79
2022-11-09T05:13:57.691Z,7.79
2022-11-09T05:16:41.108Z,7.78
2022-11-09T05:19:24.024Z,7.77
2022-11-09T05:22:22.279Z,7.73
2022-11-09T05:25:05.580Z,7.73
2022-11-09T05:27:48.550Z,7.77
2022-11-09T05:30:31.669Z,7.81
2022-11-09T05:33:16.661Z,7.83
2022-11-09T05:35:59.788Z,7.83
2022-11-09T05:38:44.146Z,7.83
2022-11-09T05:41:27.639Z,7.84
2022-11-09T05:44:10.777Z,7.82
2022-11-09T05:46:53.699Z,7.81
2022-11-09T05:49:37.110Z,7.78
2022-11-09T05:52:20.194Z,7.77
2022-11-09T05:55:05.118Z,7.74
2022-11-09T05:57:48.085Z,7.71
2022-11-09T06:00:31.332Z,7.70
2022-11-09T06:03:14.345Z,7.68
2022-11-09T06:06:07.800Z,7.65
2022-11-09T06:08:51.504Z,7.64
2022-11-09T06:11:35.802Z,7.62
2022-11-09T06:14:18.792Z,7.59
2022-11-09T06:17:01.799Z,7.57
2022-11-09T06:19:45.109Z,7.55
2022-11-09T06:22:28.031Z,7.54
2022-11-09T06:25:11.113Z,7.53
2022-11-09T06:27:57.387Z,7.53
2022-11-09T06:30:40.300Z,7.55
2022-11-09T06:33:23.393Z,7.61
2022-11-09T06:36:07.052Z,7.70
2022-11-09T06:38:50.895Z,7.79
2022-11-09T06:41:34.104Z,7.86
2022-11-09T06:44:18.429Z,7.93
2022-11-09T06:47:01.563Z,8.00
2022-11-09T06:49:44.619Z,8.08
2022-11-09T06:52:27.568Z,8.17
2022-11-09T06:55:11.218Z,8.23
2022-11-09T06:57:54.466Z,8.29
2022-11-09T07:00:39.554Z,8.35
2022-11-09T07:03:24.049Z,8.44
2022-11-09T07:06:07.798Z,8.51
2022-11-09T07:08:50.769Z,8.59
2022-11-09T07:11:33.770Z,8.69
2022-11-09T07:14:16.878Z,8.81
2022-11-09T07:17:01.172Z,8.90
2022-11-09T07:19:44.147Z,9.00
2022-11-09T07:22:28.916Z,9.10
2022-11-09T07:25:12.640Z,9.18
2022-11-09T07:27:55.650Z,9.27
2022-11-09T07:30:39.722Z,9.32
2022-11-09T07:33:25.284Z,9.35
2022-11-09T07:36:09.190Z,9.38
2022-11-09T07:38:52.120Z,9.44
2022-11-09T07:41:35.251Z,9.48
2022-11-09T07:44:18.974Z,9.52
2022-11-09T07:47:02.208Z,9.55
2022-11-09T07:49:47.083Z,9.60
2022-11-09T07:52:30.089Z,9.64
2022-11-09T07:55:13.049Z,9.68
2022-11-09T07:57:57.720Z,9.76
2022-11-09T08:00:42.191Z,9.80
2022-11-09T08:03:26.117Z,9.84
2022-11-09T08:06:15.624Z,9.86
2022-11-09T08:09:01.076Z,9.91
2022-11-09T08:11:44.058Z,9.95
2022-11-09T08:14:26.960Z,10.00
2022-11-09T08:17:10.035Z,10.03
2022-11-09T08:19:52.924Z,10.11
2022-11-09T08:22:43.264Z,10.16
2022-11-09T08:25:26.332Z,10.22
2022-11-09T08:28:14.799Z,10.27
2022-11-09T08:31:01.069Z,10.33
2022-11-09T08:33:44.109Z,10.43
2022-11-09T08:36:28.622Z,10.55
2022-11-09T08:39:13.020Z,10.60
2022-11-09T08:41:55.928Z,10.72
2022-11-09T08:44:38.862Z,10.79
2022-11-09T08:47:21.984Z,10.87
2022-11-09T08:50:06.013Z,10.94
2022-11-09T08:52:48.912Z,11.06
2022-11-09T08:55:33.586Z,11.18
2022-11-09T08:58:16.337Z,11.23
2022-11-09T09:00:59.455Z,11.37
2022-11-09T09:03:42.463Z,11.50
2022-11-09T09:06:30.648Z,11.60
2022-11-09T09:09:14.116Z,11.72
2022-11-09T09:11:58.460Z,11.79
2022-11-09T09:14:41.408Z,11.86
2022-11-09T09:17:24.351Z,11.97
2022-11-09T09:20:08.214Z,12.09
2022-11-09T09:22:51.355Z,12.20
2022-11-09T09:25:34.402Z,12.27
2022-11-09T09:28:18.964Z,12.33
2022-11-09T09:31:02.316Z,12.26
2022-11-09T09:33:45.606Z,12.22
2022-11-09T09:36:28.549Z,12.16
2022-11-09T09:39:11.592Z,12.15
2022-11-09T09:41:57.387Z,12.19
2022-11-09T09:44:47.758Z,12.23
2022-11-09T09:47:43.986Z,12.25
2022-11-09T09:50:30.419Z,12.34
2022-11-09T09:53:24.202Z,12.48
2022-11-09T09:56:13.755Z,12.62
2022-11-09T09:59:02.418Z,12.70
2022-11-09T10:01:47.401Z,12.81
2022-11-09T10:04:37.242Z,12.89
2022-11-09T10:07:25.591Z,12.97
2022-11-09T10:10:25.656Z,13.05
2022-11-09T10:13:36.183Z,12.97
2022-11-09T10:16:27.891Z,12.94
2022-11-09T10:19:41.973Z,13.01
2022-11-09T10:22:32.545Z,13.18
2022-11-09T10:25:32.062Z,13.13
2022-11-09T10:28:31.493Z,13.23
2022-11-09T10:31:23.307Z,13.35
2022-11-09T10:34:18.448Z,13.41
2022-11-09T10:37:08.279Z,13.45
2022-11-09T10:39:57.359Z,13.46
2022-11-09T10:43:02.267Z,13.58
2022-11-09T10:46:05.983Z,13.75
2022-11-09T10:49:21.279Z,13.90
2022-11-09T10:52:46.183Z,13.97
2022-11-09T10:55:54.825Z,13.95
2022-11-09T10:58:56.441Z,13.97
2022-11-09T11:02:02.075Z,14.01
2022-11-09T11:05:24.803Z,13.97
2022-11-09T11:08:37.671Z,13.88
2022-11-09T11:11:40.121Z,13.84
2022-11-09T11:14:44.650Z,13.88
2022-11-09T11:17:46.376Z,14.07
2022-11-09T11:20:47.956Z,14.30
2022-11-09T11:27:10.414Z,14.34
2022-11-09T11:30:16.133Z,14.44
2022-11-09T11:33:19.293Z,14.40
2022-11-09T11:36:28.275Z,14.37
2022-11-09T11:39:45.591Z,14.30
2022-11-09T11:43:04.624Z,14.38
2022-11-09T11:46:16.654Z,14.35
2022-11-09T11:49:42.627Z,14.26
2022-11-09T11:52:59.470Z,14.38
2022-11-09T11:56:21.261Z,14.54
2022-11-09T11:59:42.992Z,14.65
2022-11-09T12:03:21.520Z,14.85
2022-11-09T12:06:44.152Z,14.83
2022-11-09T12:10:08.694Z,14.70
2022-11-09T12:13:25.606Z,14.82
2022-11-09T12:16:35.514Z,14.88
2022-11-09T12:19:49.795Z,14.89
2022-11-09T12:23:02.929Z,14.90
2022-11-09T12:26:17.026Z,14.78
2022-11-09T12:29:23.639Z,14.88
2022-11-09T12:32:37.586Z,14.88
2022-11-09T12:35:43.285Z,14.86
2022-11-09T12:38:54.557Z,14.96
2022-11-09T12:42:00.722Z,14.77
2022-11-09T12:45:06.050Z,14.50
2022-11-09T12:48:13.267Z,14.48
2022-11-09T12:51:15.212Z,14.48
2022-11-09T12:54:16.672Z,14.40
2022-11-09T12:57:24.881Z,14.36
2022-11-09T13:00:48.295Z,14.41
2022-11-09T13:03:57.389Z,14.28
2022-11-09T13:07:50.484Z,14.06
2022-11-09T13:11:10.121Z,13.80
2022-11-09T13:14:38.399Z,13.73
2022-11-09T13:18:05.219Z,13.66
2022-11-09T13:21:41.425Z,13.68
2022-11-09T13:24:52.489Z,13.66
2022-11-09T13:27:54.275Z,13.65
2022-11-09T13:30:57.480Z,13.67
2022-11-09T13:34:28.614Z,13.61
2022-11-09T13:37:49.514Z,13.47
2022-11-09T13:40:51.542Z,13.22
2022-11-09T13:44:14.059Z,13.02
2022-11-09T13:47:23.707Z,12.88
2022-11-09T13:50:27.265Z,12.81
2022-11-09T13:53:32.156Z,12.71
2022-11-09T13:56:37.628Z,12.66
2022-11-09T13:59:46.860Z,12.57
2022-11-09T14:02:54.798Z,12.43
2022-11-09T14:05:59.048Z,12.40
2022-11-09T14:09:02.896Z,12.38
2022-11-09T14:12:15.189Z,12.26
2022-11-09T14:15:36.385Z,12.34
2022-11-09T14:18:47.234Z,12.44
2022-11-09T14:21:50.706Z,12.44
2022-11-09T14:24:53.588Z,12.48
2022-11-09T14:27:58.255Z,12.46
2022-11-09T14:30:59.588Z,12.38
2022-11-09T14:34:02.802Z,12.26
2022-11-09T14:37:07.633Z,12.16
2022-11-09T14:40:18.664Z,12.10
2022-11-09T14:43:28.736Z,11.98
2022-11-09T14:46:32.594Z,11.84
2022-11-09T14:49:34.050Z,11.80
2022-11-09T14:52:35.996Z,11.74
2022-11-09T14:55:42.159Z,11.63
2022-11-09T14:58:45.305Z,11.52
2022-11-09T15:01:59.696Z,11.45
2022-11-09T15:05:03.164Z,11.38
2022-11-09T15:08:04.833Z,11.32
2022-11-09T15:11:07.675Z,11.23
2022-11-09T15:14:14.285Z,11.11
2022-11-09T15:17:18.059Z,11.03
2022-11-09T15:20:29.795Z,10.96
2022-11-09T15:23:40.138Z,10.87
2022-11-09T15:26:45.816Z,10.76
2022-11-09T15:29:47.147Z,10.65
2022-11-09T15:32:48.854Z,10.58
2022-11-09T15:35:51.204Z,10.50
2022-11-09T15:39:02.799Z,10.43
2022-11-09T15:42:05.980Z,10.39
2022-11-09T15:45:08.648Z,10.32
2022-11-09T15:48:10.666Z,10.27
2022-11-09T15:51:12.248Z,10.23
2022-11-09T15:54:14.796Z,10.18
2022-11-09T15:57:19.538Z,10.12
2022-11-09T16:00:22.707Z,10.02
2022-11-09T16:03:24.379Z,9.98
2022-11-09T16:06:26.867Z,9.91
2022-11-09T16:09:28.657Z,9.87
2022-11-09T16:12:31.458Z,9.82
2022-11-09T16:15:33.181Z,9.82
2022-11-09T16:18:34.532Z,9.80
2022-11-09T16:21:36.239Z,9.80
2022-11-09T16:24:37.621Z,9.75
2022-11-09T16:27:50.219Z,9.73
2022-11-09T16:30:52.638Z,9.72
2022-11-09T16:33:53.917Z,9.69
2022-11-09T16:36:56.983Z,9.67
2022-11-09T16:39:59.494Z,9.62
2022-11-09T16:43:02.567Z,9.62
2022-11-09T16:46:03.948Z,9.58
2022-11-09T16:49:05.310Z,9.55
2022-11-09T16:52:06.841Z,9.54
2022-11-09T16:55:09.716Z,9.52
2022-11-09T16:58:12.551Z,9.50
2022-11-09T17:01:17.518Z,9.48
2022-11-09T17:04:21.539Z,9.48
2022-11-09T17:07:23.116Z,9.44
2022-11-09T17:10:24.635Z,9.39
2022-11-09T17:13:27.256Z,9.39
2022-11-09T17:16:28.806Z,9.37
2022-11-09T17:19:33.154Z,9.35
2022-11-09T17:22:34.598Z,9.34
2022-11-09T17:25:36.716Z,9.34
2022-11-09T17:28:43.361Z,9.34
2022-11-09T17:31:45.314Z,9.33
2022-11-09T17:34:46.637Z,9.31
2022-11-09T17:37:48.314Z,9.29
2022-11-09T17:40:49.639Z,9.25
2022-11-09T17:43:52.435Z,9.22
2022-11-09T17:46:53.887Z,9.20
2022-11-09T17:49:55.520Z,9.19
2022-11-09T17:52:57.383Z,9.19
2022-11-09T17:55:58.925Z,9.20
2022-11-09T17:59:01.555Z,9.21
2022-11-09T18:02:03.105Z,9.21
2022-11-09T18:05:04.946Z,9.21
2022-11-09T18:08:08.464Z,9.15
2022-11-09T18:11:09.727Z,9.11
2022-11-09T18:14:12.421Z,9.09
2022-11-09T18:17:13.998Z,9.11
2022-11-09T18:20:15.947Z,9.11
2022-11-09T18:23:17.560Z,9.11
2022-11-09T18:26:18.875Z,9.07
2022-11-09T18:29:22.261Z,8.95
2022-11-09T18:32:23.774Z,8.93
2022-11-09T18:35:25.204Z,8.86
2022-11-09T18:38:29.566Z,8.78
2022-11-09T18:41:31.369Z,8.78
2022-11-09T18:44:34.485Z,8.76
2022-11-09T18:47:36.112Z,8.78
2022-11-09T18:50:38.566Z,8.81
2022-11-09T18:53:41.601Z,8.86
2022-11-09T18:56:43.823Z,8.91
2022-11-09T18:59:46.745Z,8.95
2022-11-09T19:02:48.360Z,9.00
2022-11-09T19:05:50.050Z,9.02
2022-11-09T19:09:09.292Z,9.06
2022-11-09T19:12:12.354Z,9.06
2022-11-09T19:15:15.587Z,9.10
2022-11-09T19:18:17.015Z,9.10
2022-11-09T19:21:29.606Z,9.07
2022-11-09T19:24:31.211Z,9.09
2022-11-09T19:27:32.447Z,9.10
2022-11-09T19:30:35.405Z,9.12
2022-11-09T19:33:36.853Z,9.16
2022-11-09T19:36:38.439Z,9.17
2022-11-09T19:39:43.110Z,9.17
2022-11-09T19:42:45.127Z,9.15
2022-11-09T19:45:47.881Z,9.12
2022-11-09T19:48:49.239Z,9.13
2022-11-09T19:51:50.507Z,9.11
2022-11-09T19:54:51.842Z,9.14
2022-11-09T19:57:53.103Z,9.14
2022-11-09T20:01:04.129Z,9.14
2022-11-09T20:04:10.063Z,9.14
2022-11-09T20:07:12.068Z,9.15
2022-11-09T20:10:13.671Z,9.15
2022-11-09T20:13:15.309Z,9.14
2022-11-09T20:16:18.004Z,9.14
2022-11-09T20:19:20.155Z,9.14
2022-11-09T20:22:21.864Z,9.14
2022-11-09T20:25:23.022Z,9.10
2022-11-09T20:28:24.487Z,9.08
2022-11-09T20:31:27.493Z,9.05
2022-11-09T20:34:29.818Z,9.03
2022-11-09T20:37:31.451Z,9.01
2022-11-09T20:40:33.171Z,9.01
2022-11-09T20:43:34.785Z,9.00
2022-11-09T20:46:38.764Z,8.99
2022-11-09T20:49:40.371Z,8.99
2022-11-09T20:52:41.826Z,9.02
2022-11-09T20:55:43.838Z,9.03
2022-11-09T20:58:45.477Z,9.07
2022-11-09T21:01:48.651Z,9.08
2022-11-09T21:04:50.247Z,9.12
2022-11-09T21:07:51.785Z,9.14
2022-11-09T21:10:54.017Z,9.14
2022-11-09T21:13:56.144Z,9.14
2022-11-09T21:16:58.919Z,9.15
2022-11-09T21:20:00.162Z,9.16
2022-11-09T21:23:19.357Z,9.16
2022-11-09T21:26:38.463Z,9.16
2022-11-09T21:29:51.658Z,9.12
2022-11-09T21:32:54.623Z,9.09
2022-11-09T21:35:56.384Z,9.08
2022-11-09T21:38:57.963Z,9.06
2022-11-09T21:41:59.580Z,9.03
2022-11-09T21:45:00.734Z,9.01
2022-11-09T21:48:03.571Z,8.98
2022-11-09T21:51:05.044Z,8.96
2022-11-09T21:54:07.217Z,8.96
2022-11-09T21:57:08.967Z,8.94
2022-11-09T22:00:11.639Z,8.92
2022-11-09T22:03:14.703Z,8.91
2022-11-09T22:06:16.249Z,8.90
2022-11-09T22:09:19.059Z,8.89
2022-11-09T22:12:37.643Z,8.85
2022-11-09T22:15:56.365Z,8.82
2022-11-09T22:19:17.129Z,8.77
2022-11-09T22:22:18.397Z,8.74
2022-11-09T22:25:19.652Z,8.72
2022-11-09T22:28:21.151Z,8.70
2022-11-09T22:31:22.714Z,8.71
2022-11-09T22:34:25.350Z,8.70
2022-11-09T22:37:26.700Z,8.69
2022-11-09T22:40:28.359Z,8.67
2022-11-09T22:43:30.014Z,8.66
2022-11-09T22:46:31.584Z,8.68
2022-11-09T22:49:36.697Z,8.70
2022-11-09T22:52:38.303Z,8.71
2022-11-09T22:55:39.585Z,8.72
2022-11-09T22:58:40.857Z,8.71
2022-11-09T23:01:42.622Z,8.72
2022-11-09T23:04:45.654Z,8.72
2022-11-09T23:07:46.911Z,8.71
2022-11-09T23:10:55.241Z,8.70
2022-11-09T23:13:57.397Z,8.72
2022-11-09T23:16:58.558Z,8.72
2022-11-09T23:20:00.510Z,8.72
2022-11-09T23:23:02.137Z,8.70
2022-11-09T23:26:03.908Z,8.69
2022-11-09T23:29:05.901Z,8.66
2022-11-09T23:32:07.425Z,8.65
2022-11-09T23:35:11.099Z,8.65
2022-11-09T23:38:12.618Z,8.65
2022-11-09T23:41:14.813Z,8.62
2022-11-09T23:44:16.112Z,8.60
2022-11-09T23:47:17.520Z,8.61
2022-11-09T23:50:20.602Z,8.64
2022-11-09T23:53:22.620Z,8.64
2022-11-09T23:56:24.416Z,8.64
2022-11-09T23:59:25.739Z,8.59
